Time;durP1;ratioP1;P1;durP2;ratioP2;P2;SDS_P1;SDS_P2;PMS_P1;PMS_P2;Temp;Humidity;BMP_temperature;BMP_pressure;BME280_temperature;BME280_humidity;BME280_pressure;Samples;Min_cycle;Max_cycle;Signal;HPM_P1;HPM_P2
2024/03/21 00:01:11;;;;;;;;;;;;;;;;;;2198561;66;1657;-25
2024/03/21 00:03:41;;;;;;;;;;;;;;;;;;2198074;66;1539;-25
2024/03/21 00:06:12;;;;;;;;;;;;;;;;;;2196072;67;1557;-27
2024/03/21 00:08:42;;;;;;;;;;;;;;;;;;2196154;67;1938;-25
2024/03/21 00:11:12;;;;;;;;;;;;;;;;;;2195277;59;1919;-25
2024/03/21 00:13:43;;;;;;;;;;;;;;;;;;2198005;59;1610;-25
2024/03/21 00:16:13;;;;;;;;;;;;;;;;;;2196005;58;1681;-25
2024/03/21 00:18:43;;;;;;;;;;;;;;;;;;2194588;58;1535;-25
2024/03/21 00:21:13;;;;;;;;;;;;;;;;;;2195009;59;1531;-26
2024/03/21 00:23:43;;;;;;;;;;;;;;;;;;2195112;59;1884;-25
2024/03/21 00:26:14;;;;;;;;;;;;;;;;;;2195094;67;1418;-25
2024/03/21 00:28:46;;;;;;;;;;;;;;;;;;2195539;66;1952;-26
2024/03/21 00:31:16;;;;;;;;;;;;;;;;;;2194208;67;1552;-25
2024/03/21 00:33:50;;;;;;;;;;;;;;;;;;2195698;59;1676;-25
2024/03/21 00:36:20;;;;;;;;;;;;;;;;;;2194328;66;1527;-25
2024/03/21 00:38:50;;;;;;;;;;;;;;;;;;2196355;59;1475;-25
2024/03/21 00:41:21;;;;;;;;;;;;;;;;;;2188889;59;2047;-25
2024/03/21 00:43:51;;;;;;;;;;;;;;;;;;2199593;54;3812;-20
2024/03/21 00:46:23;;;;;;;;;;;;;;;;;;2208205;58;1776;-20
2024/03/21 00:48:53;;;;;;;;;;;;;;;;;;2198269;66;1914;-20
2024/03/21 00:51:23;;;;;;;;;;;;;;;;;;2197772;59;2050;-20
2024/03/21 00:53:56;;;;;;;;;;;;;;;;;;2209017;66;1848;-20
2024/03/21 00:56:27;;;;;;;;;;;;;;;;;;2208640;66;3182;-20
2024/03/21 00:58:58;;;;;;;;;;;;;;;;;;2197758;59;2374;-20
2024/03/21 01:01:28;;;;;;;;;;;;;;;;;;2208229;58;2603;-20
2024/03/21 01:03:59;;;;;;;;;;;;;;;;;;2209700;66;1924;-20
2024/03/21 01:06:29;;;;;;;;;;;;;;;;;;2196793;66;2658;-20
2024/03/21 01:09:00;;;;;;;;;;;;;;;;;;2208905;66;1912;-20
2024/03/21 01:11:30;;;;;;;;;;;;;;;;;;2206499;59;1807;-20
2024/03/21 01:14:00;;;;;;;;;;;;;;;;;;2197210;59;1838;-20
2024/03/21 01:16:31;;;;;;;;;;;;;;;;;;2196204;59;2309;-20
2024/03/21 01:19:02;;;;;;;;;;;;;;;;;;2209986;66;1808;-20
2024/03/21 01:21:32;;;;;;;;;;;;;;;;;;2206960;66;1906;-20
2024/03/21 01:24:02;;;;;;;;;;;;;;;;;;2198399;60;1745;-20
2024/03/21 01:26:33;;;;;;;;;;;;;;;;;;2209402;66;2486;-20
2024/03/21 01:29:05;;;;;;;;;;;;;;;;;;2198723;66;1989;-20
2024/03/21 01:31:35;;;;;;;;;;;;;;;;;;2197199;66;2053;-20
2024/03/21 01:34:05;;;;;;;;;;;;;;;;;;2197657;66;2363;-20
2024/03/21 01:36:46;;;;;;;;;;;;;;;;;;2195995;66;1817;-20
2024/03/21 01:39:17;;;;;;;;;;;;;;;;;;2208515;59;1743;-20
2024/03/21 01:41:47;;;;;;;;;;;;;;;;;;2208509;58;1880;-20
2024/03/21 01:44:21;;;;;;;;;;;;;;;;;;2209073;59;1802;-20
2024/03/21 01:46:52;;;;;;;;;;;;;;;;;;2209110;58;2005;-20
2024/03/21 01:49:22;;;;;;;;;;;;;;;;;;2197522;66;1922;-20
2024/03/21 01:51:52;;;;;;;;;;;;;;;;;;2208180;59;1889;-20
2024/03/21 01:54:23;;;;;;;;;;;;;;;;;;2206925;67;1943;-20
2024/03/21 01:56:53;;;;;;;;;;;;;;;;;;2197232;66;1955;-20
2024/03/21 01:59:24;;;;;;;;;;;;;;;;;;2209315;59;1915;-20
2024/03/21 02:01:56;;;;;;;;;;;;;;;;;;2198487;67;1732;-20
2024/03/21 02:04:26;;;;;;;;;;;;;;;;;;2196760;66;1972;-20
2024/03/21 02:07:00;;;;;;;;;;;;;;;;;;2197976;66;1833;-20
2024/03/21 02:09:31;;;;;;;;;;;;;;;;;;2197796;59;1940;-20
2024/03/21 02:12:05;;;;;;;;;;;;;;;;;;2209477;66;2066;-20
2024/03/21 02:14:37;;;;;;;;;;;;;;;;;;2197098;59;2506;-20
2024/03/21 02:17:08;;;;;;;;;;;;;;;;;;2197533;59;1616;-20
2024/03/21 02:19:38;;;;;;;;;;;;;;;;;;2197109;66;2184;-20
2024/03/21 02:25:00;;;;;;;;;;;;;;;;;;2198236;59;1936;-20
2024/03/21 02:27:34;;;;;;;;;;;;;;;;;;2208200;66;1836;-20
2024/03/21 02:30:04;;;;;;;;;;;;;;;;;;2209654;66;1973;-20
2024/03/21 02:32:35;;;;;;;;;;;;;;;;;;2196434;67;1935;-20
2024/03/21 02:35:07;;;;;;;;;;;;;;;;;;2209615;66;1859;-20
2024/03/21 02:37:37;;;;;;;;;;;;;;;;;;2196929;59;1751;-20
2024/03/21 02:40:09;;;;;;;;;;;;;;;;;;2206417;59;1803;-20
2024/03/21 02:42:39;;;;;;;;;;;;;;;;;;2197186;59;1842;-20
2024/03/21 02:45:10;;;;;;;;;;;;;;;;;;2209743;66;1880;-20
2024/03/21 02:47:40;;;;;;;;;;;;;;;;;;2198434;66;1816;-20
2024/03/21 02:50:11;;;;;;;;;;;;;;;;;;2199556;67;2022;-20
2024/03/21 02:52:41;;;;;;;;;;;;;;;;;;2209319;66;2741;-20
2024/03/21 02:55:14;;;;;;;;;;;;;;;;;;2198925;66;1933;-20
2024/03/21 02:57:44;;;;;;;;;;;;;;;;;;2205980;66;1852;-20
2024/03/21 03:00:15;;;;;;;;;;;;;;;;;;2209308;66;1964;-20
2024/03/21 03:02:46;;;;;;;;;;;;;;;;;;2208379;66;1870;-20
2024/03/21 03:05:17;;;;;;;;;;;;;;;;;;2196618;66;1863;-20
2024/03/21 03:07:48;;;;;;;;;;;;;;;;;;2196574;66;1800;-20
2024/03/21 03:10:23;;;;;;;;;;;;;;;;;;2207614;59;1944;-20
2024/03/21 03:12:53;;;;;;;;;;;;;;;;;;2206545;59;1939;-20
2024/03/21 03:15:23;;;;;;;;;;;;;;;;;;2197185;59;1837;-20
2024/03/21 03:17:54;;;;;;;;;;;;;;;;;;2196725;66;1807;-20
2024/03/21 03:20:24;;;;;;;;;;;;;;;;;;2207449;66;2909;-20
2024/03/21 03:22:54;;;;;;;;;;;;;;;;;;2208754;66;1987;-20
2024/03/21 03:25:25;;;;;;;;;;;;;;;;;;2197248;67;2580;-20
2024/03/21 03:27:55;;;;;;;;;;;;;;;;;;2208188;59;1976;-20
2024/03/21 03:30:26;;;;;;;;;;;;;;;;;;2196517;66;2126;-20
2024/03/21 03:33:06;;;;;;;;;;;;;;;;;;2196198;66;2246;-20
2024/03/21 03:35:43;;;;;;;;;;;;;;;;;;2195547;59;1971;-20
2024/03/21 03:38:15;;;;;;;;;;;;;;;;;;2209356;58;1877;-20
2024/03/21 03:40:46;;;;;;;;;;;;;;;;;;2203457;59;1831;-20
2024/03/21 03:43:16;;;;;;;;;;;;;;;;;;2197609;59;2069;-20
2024/03/21 03:45:46;;;;;;;;;;;;;;;;;;2196242;59;1836;-20
2024/03/21 03:48:17;;;;;;;;;;;;;;;;;;2196794;66;1919;-20
2024/03/21 03:50:47;;;;;;;;;;;;;;;;;;2205462;59;2413;-20
2024/03/21 03:53:17;;;;;;;;;;;;;;;;;;2208335;66;2106;-21
2024/03/21 03:55:48;;;;;;;;;;;;;;;;;;2195366;66;1735;-20
2024/03/21 03:58:21;;;;;;;;;;;;;;;;;;2195981;66;1839;-20
2024/03/21 04:00:56;;;;;;;;;;;;;;;;;;2204497;59;1840;-20
2024/03/21 04:03:26;;;;;;;;;;;;;;;;;;2196625;66;3924;-20
2024/03/21 04:05:58;;;;;;;;;;;;;;;;;;2195697;67;1985;-20
2024/03/21 04:08:28;;;;;;;;;;;;;;;;;;2209906;66;1829;-20
2024/03/21 04:10:59;;;;;;;;;;;;;;;;;;2196951;59;1937;-20
2024/03/21 04:13:29;;;;;;;;;;;;;;;;;;2197899;59;1825;-20
2024/03/21 04:16:00;;;;;;;;;;;;;;;;;;2196612;59;1860;-20
2024/03/21 04:18:30;;;;;;;;;;;;;;;;;;2205333;66;1842;-20
2024/03/21 04:21:01;;;;;;;;;;;;;;;;;;2210187;66;2148;-20
2024/03/21 04:23:31;;;;;;;;;;;;;;;;;;2208710;66;1952;-20
2024/03/21 04:26:02;;;;;;;;;;;;;;;;;;2205216;66;1897;-20
2024/03/21 04:28:32;;;;;;;;;;;;;;;;;;2197304;66;1827;-21
2024/03/21 04:31:02;;;;;;;;;;;;;;;;;;2198305;67;1979;-20
2024/03/21 04:33:33;;;;;;;;;;;;;;;;;;2196988;66;2090;-20
2024/03/21 04:36:03;;;;;;;;;;;;;;;;;;2197750;66;2583;-20
2024/03/21 04:38:34;;;;;;;;;;;;;;;;;;2196377;59;1995;-20
2024/03/21 04:41:04;;;;;;;;;;;;;;;;;;2210101;58;1988;-20
2024/03/21 04:43:35;;;;;;;;;;;;;;;;;;2195914;59;2373;-20
2024/03/21 04:46:05;;;;;;;;;;;;;;;;;;2208353;59;1970;-20
2024/03/21 04:48:35;;;;;;;;;;;;;;;;;;2196708;59;1784;-20
2024/03/21 04:51:07;;;;;;;;;;;;;;;;;;2198991;59;3408;-21
2024/03/21 04:53:38;;;;;;;;;;;;;;;;;;2197548;66;2373;-21
2024/03/21 04:56:08;;;;;;;;;;;;;;;;;;2211254;59;1744;-20
2024/03/21 04:58:38;;;;;;;;;;;;;;;;;;2205101;66;1690;-20
2024/03/21 05:01:09;;;;;;;;;;;;;;;;;;2198236;66;1749;-21
2024/03/21 05:03:39;;;;;;;;;;;;;;;;;;2197858;62;1853;-21
2024/03/21 05:06:09;;;;;;;;;;;;;;;;;;2211584;66;1821;-23
2024/03/21 05:08:39;;;;;;;;;;;;;;;;;;2210692;66;2006;-21
2024/03/21 05:11:10;;;;;;;;;;;;;;;;;;2199707;60;1944;-21
2024/03/21 05:13:42;;;;;;;;;;;;;;;;;;2198891;59;1899;-21
2024/03/21 05:16:12;;;;;;;;;;;;;;;;;;2210613;66;1780;-22
2024/03/21 05:18:42;;;;;;;;;;;;;;;;;;2209540;59;2030;-22
2024/03/21 05:21:13;;;;;;;;;;;;;;;;;;2205560;67;2136;-21
2024/03/21 05:23:43;;;;;;;;;;;;;;;;;;2199107;66;1790;-21
2024/03/21 05:26:13;;;;;;;;;;;;;;;;;;2211414;66;1952;-21
2024/03/21 05:28:46;;;;;;;;;;;;;;;;;;2208665;59;1898;-22
2024/03/21 05:31:20;;;;;;;;;;;;;;;;;;2210286;59;2801;-21
2024/03/21 05:33:51;;;;;;;;;;;;;;;;;;2197041;59;1887;-21
2024/03/21 05:36:22;;;;;;;;;;;;;;;;;;2211302;58;1734;-21
2024/03/21 05:38:52;;;;;;;;;;;;;;;;;;2211545;59;2598;-21
2024/03/21 05:41:22;;;;;;;;;;;;;;;;;;2211183;58;2094;-21
2024/03/21 05:43:52;;;;;;;;;;;;;;;;;;2197656;59;1883;-21
2024/03/21 05:46:29;;;;;;;;;;;;;;;;;;2210856;66;1823;-21
2024/03/21 05:48:59;;;;;;;;;;;;;;;;;;2209746;66;1964;-21
2024/03/21 05:51:29;;;;;;;;;;;;;;;;;;2211007;58;1897;-21
2024/03/21 05:54:01;;;;;;;;;;;;;;;;;;2208743;59;2561;-21
2024/03/21 05:56:32;;;;;;;;;;;;;;;;;;2199037;59;2144;-21
2024/03/21 05:59:03;;;;;;;;;;;;;;;;;;2198292;59;2647;-21
2024/03/21 06:01:34;;;;;;;;;;;;;;;;;;2199941;59;1685;-21
2024/03/21 06:04:08;;;;;;;;;;;;;;;;;;2208610;59;2514;-21
2024/03/21 06:06:39;;;;;;;;;;;;;;;;;;2208697;66;2209;-21
2024/03/21 06:09:11;;;;;;;;;;;;;;;;;;2210516;60;1987;-21
2024/03/21 06:11:41;;;;;;;;;;;;;;;;;;2196989;59;1889;-21
2024/03/21 06:14:12;;;;;;;;;;;;;;;;;;2198647;60;2010;-21
2024/03/21 06:16:42;;;;;;;;;;;;;;;;;;2208012;59;2103;-21
2024/03/21 06:19:12;;;;;;;;;;;;;;;;;;2210080;66;2314;-21
2024/03/21 06:21:42;;;;;;;;;;;;;;;;;;2197380;66;1831;-21
2024/03/21 06:24:13;;;;;;;;;;;;;;;;;;2209781;58;1820;-21
2024/03/21 06:26:44;;;;;;;;;;;;;;;;;;2208432;66;1806;-21
2024/03/21 06:29:14;;;;;;;;;;;;;;;;;;2198652;66;1953;-21
2024/03/21 06:31:45;;;;;;;;;;;;;;;;;;2207645;59;2878;-21
2024/03/21 06:34:15;;;;;;;;;;;;;;;;;;2208934;58;2110;-21
2024/03/21 06:36:46;;;;;;;;;;;;;;;;;;2195429;59;2253;-21
2024/03/21 06:39:16;;;;;;;;;;;;;;;;;;2197538;59;2263;-21
2024/03/21 06:41:46;;;;;;;;;;;;;;;;;;2194367;59;2838;-27
2024/03/21 06:44:17;;;;;;;;;;;;;;;;;;2209368;58;2659;-21
2024/03/21 06:46:47;;;;;;;;;;;;;;;;;;2195103;59;2603;-21
2024/03/21 06:49:17;;;;;;;;;;;;;;;;;;2196784;59;2463;-21
2024/03/21 06:51:48;;;;;;;;;;;;;;;;;;2195949;59;1842;-21
2024/03/21 06:54:18;;;;;;;;;;;;;;;;;;2198349;66;2795;-21
2024/03/21 06:56:48;;;;;;;;;;;;;;;;;;2196216;66;1916;-21
2024/03/21 06:59:18;;;;;;;;;;;;;;;;;;2208368;58;2267;-21
2024/03/21 07:01:49;;;;;;;;;;;;;;;;;;2195008;59;2255;-21
2024/03/21 07:04:19;;;;;;;;;;;;;;;;;;2197388;59;2394;-21
2024/03/21 07:06:49;;;;;;;;;;;;;;;;;;2196086;58;2341;-21
2024/03/21 07:09:20;;;;;;;;;;;;;;;;;;2205966;59;2696;-21
2024/03/21 07:11:50;;;;;;;;;;;;;;;;;;2208047;59;2551;-21
2024/03/21 07:14:20;;;;;;;;;;;;;;;;;;2197031;59;2351;-21
2024/03/21 07:16:51;;;;;;;;;;;;;;;;;;2195986;59;2627;-21
2024/03/21 07:19:21;;;;;;;;;;;;;;;;;;2197181;59;2534;-21
2024/03/21 07:21:51;;;;;;;;;;;;;;;;;;2206974;58;2187;-21
2024/03/21 07:24:22;;;;;;;;;;;;;;;;;;2196116;59;2579;-21
2024/03/21 07:26:52;;;;;;;;;;;;;;;;;;2196767;59;2009;-22
2024/03/21 07:29:22;;;;;;;;;;;;;;;;;;2200127;67;3035;-22
2024/03/21 07:31:53;;;;;;;;;;;;;;;;;;2197093;66;2890;-23
2024/03/21 07:34:23;;;;;;;;;;;;;;;;;;2207322;59;2571;-22
2024/03/21 07:36:54;;;;;;;;;;;;;;;;;;2207803;58;2253;-22
2024/03/21 07:39:24;;;;;;;;;;;;;;;;;;2210357;58;2231;-22
2024/03/21 07:41:54;;;;;;;;;;;;;;;;;;2208696;58;2322;-22
2024/03/21 07:44:25;;;;;;;;;;;;;;;;;;2209969;59;1876;-22
2024/03/21 07:46:56;;;;;;;;;;;;;;;;;;2196676;67;1945;-22
2024/03/21 07:49:26;;;;;;;;;;;;;;;;;;2198019;67;1930;-22
2024/03/21 07:52:01;;;;;;;;;;;;;;;;;;2197481;59;2101;-22
2024/03/21 07:54:33;;;;;;;;;;;;;;;;;;2198902;59;2652;-22
2024/03/21 07:57:03;;;;;;;;;;;;;;;;;;2206504;59;3394;-23
2024/03/21 07:59:33;;;;;;;;;;;;;;;;;;2210517;66;1887;-22
2024/03/21 08:02:04;;;;;;;;;;;;;;;;;;2208748;59;1826;-23
2024/03/21 08:04:34;;;;;;;;;;;;;;;;;;2198268;67;2154;-23
2024/03/21 08:07:05;;;;;;;;;;;;;;;;;;2196850;66;2059;-23
2024/03/21 08:09:35;;;;;;;;;;;;;;;;;;2197826;59;1936;-23
2024/03/21 08:12:05;;;;;;;;;;;;;;;;;;2197790;59;2666;-23
2024/03/21 08:14:36;;;;;;;;;;;;;;;;;;2198574;59;2768;-22
2024/03/21 08:17:06;;;;;;;;;;;;;;;;;;2209849;66;2938;-22
2024/03/21 08:19:37;;;;;;;;;;;;;;;;;;2198069;67;1886;-22
2024/03/21 08:22:07;;;;;;;;;;;;;;;;;;2209014;66;1895;-23
2024/03/21 08:24:38;;;;;;;;;;;;;;;;;;2197071;59;1876;-23
2024/03/21 08:27:08;;;;;;;;;;;;;;;;;;2209628;58;2054;-22
2024/03/21 08:29:39;;;;;;;;;;;;;;;;;;2198344;59;1941;-22
2024/03/21 08:32:11;;;;;;;;;;;;;;;;;;2196475;59;2476;-23
2024/03/21 08:34:41;;;;;;;;;;;;;;;;;;2195600;59;1833;-23
2024/03/21 08:37:12;;;;;;;;;;;;;;;;;;2207869;66;1874;-23
2024/03/21 08:39:42;;;;;;;;;;;;;;;;;;2197251;59;2717;-23
2024/03/21 08:42:12;;;;;;;;;;;;;;;;;;2197491;59;1937;-23
2024/03/21 08:44:43;;;;;;;;;;;;;;;;;;2209740;58;2532;-22
2024/03/21 08:47:13;;;;;;;;;;;;;;;;;;2196412;59;2301;-23
2024/03/21 08:49:43;;;;;;;;;;;;;;;;;;2209383;66;1950;-22
2024/03/21 08:52:14;;;;;;;;;;;;;;;;;;2208581;59;2151;-22
2024/03/21 08:54:44;;;;;;;;;;;;;;;;;;2211506;66;1831;-22
2024/03/21 08:57:15;;;;;;;;;;;;;;;;;;2208078;58;2131;-23
2024/03/21 08:59:47;;;;;;;;;;;;;;;;;;2209196;66;1816;-22
2024/03/21 09:02:17;;;;;;;;;;;;;;;;;;2197030;59;2302;-22
2024/03/21 09:04:48;;;;;;;;;;;;;;;;;;2208104;59;2816;-22
2024/03/21 09:07:18;;;;;;;;;;;;;;;;;;2197227;59;2139;-25
2024/03/21 09:09:48;;;;;;;;;;;;;;;;;;2209592;59;1943;-22
2024/03/21 09:12:19;;;;;;;;;;;;;;;;;;2196885;59;2317;-22
2024/03/21 09:14:49;;;;;;;;;;;;;;;;;;2197099;59;2548;-22
2024/03/21 09:17:20;;;;;;;;;;;;;;;;;;2198004;66;2608;-22
2024/03/21 09:19:50;;;;;;;;;;;;;;;;;;2210809;66;1784;-22
2024/03/21 09:22:20;;;;;;;;;;;;;;;;;;2198612;66;1804;-22
2024/03/21 09:24:51;;;;;;;;;;;;;;;;;;2205225;59;1969;-22
2024/03/21 09:27:21;;;;;;;;;;;;;;;;;;2199088;59;1856;-22
2024/03/21 09:29:51;;;;;;;;;;;;;;;;;;2207774;66;2024;-22
2024/03/21 09:32:22;;;;;;;;;;;;;;;;;;2197742;66;2295;-22
2024/03/21 09:34:52;;;;;;;;;;;;;;;;;;2197105;59;2012;-22
2024/03/21 09:37:23;;;;;;;;;;;;;;;;;;2198639;67;2759;-22
2024/03/21 09:39:53;;;;;;;;;;;;;;;;;;2196335;59;1883;-22
2024/03/21 09:42:24;;;;;;;;;;;;;;;;;;2210271;58;1797;-22
2024/03/21 09:44:56;;;;;;;;;;;;;;;;;;2196761;66;2806;-22
2024/03/21 09:47:27;;;;;;;;;;;;;;;;;;2210106;58;2619;-22
2024/03/21 09:49:58;;;;;;;;;;;;;;;;;;2196409;66;2076;-22
2024/03/21 09:52:29;;;;;;;;;;;;;;;;;;2201960;53;2464;-25
2024/03/21 09:55:00;;;;;;;;;;;;;;;;;;2190922;59;1944;-25
2024/03/21 09:57:30;;;;;;;;;;;;;;;;;;2194233;59;2626;-25
2024/03/21 10:00:01;;;;;;;;;;;;;;;;;;2189648;66;1889;-24
2024/03/21 10:02:31;;;;;;;;;;;;;;;;;;2194752;59;2062;-24
2024/03/21 10:05:04;;;;;;;;;;;;;;;;;;2192612;66;2203;-24
2024/03/21 10:07:36;;;;;;;;;;;;;;;;;;2195033;59;1828;-24
2024/03/21 10:10:08;;;;;;;;;;;;;;;;;;2190167;59;1941;-24
2024/03/21 10:12:38;;;;;;;;;;;;;;;;;;2193983;59;2225;-24
2024/03/21 10:15:12;;;;;;;;;;;;;;;;;;2188862;59;2597;-24
2024/03/21 10:17:42;;;;;;;;;;;;;;;;;;2191012;66;2297;-24
2024/03/21 10:20:12;;;;;;;;;;;;;;;;;;2188272;59;1921;-24
2024/03/21 10:22:43;;;;;;;;;;;;;;;;;;2189976;66;2817;-24
2024/03/21 10:25:16;;;;;;;;;;;;;;;;;;2191047;66;1998;-24
2024/03/21 10:27:46;;;;;;;;;;;;;;;;;;2193145;59;1896;-24
2024/03/21 10:30:18;;;;;;;;;;;;;;;;;;2188393;66;1948;-24
2024/03/21 10:32:48;;;;;;;;;;;;;;;;;;2190145;59;1819;-24
2024/03/21 10:35:21;;;;;;;;;;;;;;;;;;2189621;66;1862;-25
2024/03/21 10:37:51;;;;;;;;;;;;;;;;;;2194393;59;1864;-24
2024/03/21 10:40:21;;;;;;;;;;;;;;;;;;2192748;59;1819;-24
2024/03/21 10:42:53;;;;;;;;;;;;;;;;;;2193235;66;2548;-24
2024/03/21 10:45:24;;;;;;;;;;;;;;;;;;2192704;59;1833;-24
2024/03/21 10:47:54;;;;;;;;;;;;;;;;;;2193061;66;1885;-24
2024/03/21 10:50:24;;;;;;;;;;;;;;;;;;2190460;66;1950;-25
2024/03/21 10:52:55;;;;;;;;;;;;;;;;;;2189602;59;1738;-24
2024/03/21 10:55:25;;;;;;;;;;;;;;;;;;2193951;66;1795;-25
2024/03/21 10:57:58;;;;;;;;;;;;;;;;;;2193107;66;1777;-24
2024/03/21 11:00:34;;;;;;;;;;;;;;;;;;2193467;58;1912;-24
2024/03/21 11:03:04;;;;;;;;;;;;;;;;;;2191831;59;1848;-24
2024/03/21 11:05:34;;;;;;;;;;;;;;;;;;2193498;66;1936;-24
2024/03/21 11:08:21;;;;;;;;;;;;;;;;;;2191682;66;2067;-24
2024/03/21 11:10:51;;;;;;;;;;;;;;;;;;2192321;59;2008;-24
2024/03/21 11:13:25;;;;;;;;;;;;;;;;;;2189836;59;2343;-24
2024/03/21 11:15:55;;;;;;;;;;;;;;;;;;2190100;59;2279;-24
2024/03/21 11:18:26;;;;;;;;;;;;;;;;;;2206014;58;2160;-24
2024/03/21 11:20:56;;;;;;;;;;;;;;;;;;2192293;59;2123;-24
2024/03/21 11:23:26;;;;;;;;;;;;;;;;;;2194793;58;1977;-24
2024/03/21 11:25:57;;;;;;;;;;;;;;;;;;2195108;58;2215;-24
2024/03/21 11:28:27;;;;;;;;;;;;;;;;;;2191033;59;1737;-24
2024/03/21 11:30:57;;;;;;;;;;;;;;;;;;2190774;66;1972;-24
2024/03/21 11:33:28;;;;;;;;;;;;;;;;;;2194424;58;2079;-24
2024/03/21 11:35:58;;;;;;;;;;;;;;;;;;2190416;59;2425;-24
2024/03/21 11:38:29;;;;;;;;;;;;;;;;;;2194575;59;2773;-24
2024/03/21 11:40:59;;;;;;;;;;;;;;;;;;2191087;59;2476;-24
2024/03/21 11:43:29;;;;;;;;;;;;;;;;;;2190387;59;1952;-24
2024/03/21 11:45:59;;;;;;;;;;;;;;;;;;2185919;59;2129;-24
2024/03/21 11:48:29;;;;;;;;;;;;;;;;;;2193713;59;2159;-24
2024/03/21 11:51:00;;;;;;;;;;;;;;;;;;2191338;59;2212;-24
2024/03/21 11:53:30;;;;;;;;;;;;;;;;;;2192391;59;2485;-24
2024/03/21 11:56:01;;;;;;;;;;;;;;;;;;2191658;66;1771;-24
2024/03/21 11:58:31;;;;;;;;;;;;;;;;;;2204792;59;2314;-24
2024/03/21 12:01:02;;;;;;;;;;;;;;;;;;2200768;58;2240;-24
2024/03/21 12:03:32;;;;;;;;;;;;;;;;;;2193915;66;1752;-24
2024/03/21 12:06:02;;;;;;;;;;;;;;;;;;2193266;66;1998;-24
2024/03/21 12:08:32;;;;;;;;;;;;;;;;;;2195226;66;2271;-24
2024/03/21 12:11:09;;;;;;;;;;;;;;;;;;2193686;59;2471;-25
2024/03/21 12:13:41;;;;;;;;;;;;;;;;;;2191317;59;1906;-25
2024/03/21 12:16:12;;;;;;;;;;;;;;;;;;2192897;66;1976;-25
2024/03/21 12:18:43;;;;;;;;;;;;;;;;;;2194203;59;2166;-25
2024/03/21 12:21:17;;;;;;;;;;;;;;;;;;2189645;66;1894;-25
2024/03/21 12:23:48;;;;;;;;;;;;;;;;;;2194236;59;1977;-22
2024/03/21 12:26:18;;;;;;;;;;;;;;;;;;2191479;59;2519;-22
2024/03/21 12:28:49;;;;;;;;;;;;;;;;;;2193366;66;7584;-25
2024/03/21 12:31:19;;;;;;;;;;;;;;;;;;2190406;59;2114;-24
2024/03/21 12:33:52;;;;;;;;;;;;;;;;;;2192746;59;1824;-25
2024/03/21 12:36:22;;;;;;;;;;;;;;;;;;2190822;66;2066;-25
2024/03/21 12:38:53;;;;;;;;;;;;;;;;;;2194898;59;1621;-24
2024/03/21 12:41:23;;;;;;;;;;;;;;;;;;2196247;59;2136;-24
2024/03/21 12:43:56;;;;;;;;;;;;;;;;;;2195055;66;2523;-24
2024/03/21 12:46:26;;;;;;;;;;;;;;;;;;2190561;59;1999;-24
2024/03/21 12:48:56;;;;;;;;;;;;;;;;;;2188341;59;1912;-24
2024/03/21 12:51:26;;;;;;;;;;;;;;;;;;2191678;66;1945;-24
2024/03/21 12:53:57;;;;;;;;;;;;;;;;;;2191342;59;2259;-24
2024/03/21 12:56:27;;;;;;;;;;;;;;;;;;2194065;66;1882;-24
2024/03/21 12:58:57;;;;;;;;;;;;;;;;;;2195587;66;1931;-24
2024/03/21 13:01:27;;;;;;;;;;;;;;;;;;2189851;59;1973;-24
2024/03/21 13:03:58;;;;;;;;;;;;;;;;;;2192094;67;1757;-24
2024/03/21 13:06:28;;;;;;;;;;;;;;;;;;2194930;66;2059;-24
2024/03/21 13:08:58;;;;;;;;;;;;;;;;;;2195384;66;1801;-24
2024/03/21 13:11:30;;;;;;;;;;;;;;;;;;2194960;59;2140;-24
2024/03/21 13:14:00;;;;;;;;;;;;;;;;;;2192402;59;2845;-24
2024/03/21 13:16:31;;;;;;;;;;;;;;;;;;2193232;59;2153;-23
2024/03/21 13:19:01;;;;;;;;;;;;;;;;;;2193408;66;1986;-23
2024/03/21 13:21:31;;;;;;;;;;;;;;;;;;2193049;59;1865;-23
2024/03/21 13:24:01;;;;;;;;;;;;;;;;;;2194424;59;2049;-23
2024/03/21 13:26:32;;;;;;;;;;;;;;;;;;2192631;59;2180;-24
2024/03/21 13:29:02;;;;;;;;;;;;;;;;;;2194716;59;2427;-23
2024/03/21 13:31:33;;;;;;;;;;;;;;;;;;2194413;59;2618;-23
2024/03/21 13:34:04;;;;;;;;;;;;;;;;;;2194919;59;2085;-23
2024/03/21 13:36:34;;;;;;;;;;;;;;;;;;2189976;66;2200;-23
2024/03/21 13:39:08;;;;;;;;;;;;;;;;;;2191055;59;2324;-23
2024/03/21 13:41:38;;;;;;;;;;;;;;;;;;2192160;59;1777;-23
2024/03/21 13:44:08;;;;;;;;;;;;;;;;;;2188182;66;2300;-23
2024/03/21 13:46:38;;;;;;;;;;;;;;;;;;2195505;59;1409;-23
2024/03/21 13:49:09;;;;;;;;;;;;;;;;;;2190017;59;3420;-23
2024/03/21 13:51:39;;;;;;;;;;;;;;;;;;2191644;59;2437;-23
2024/03/21 13:54:14;;;;;;;;;;;;;;;;;;2190334;59;2414;-23
2024/03/21 13:56:44;;;;;;;;;;;;;;;;;;2192780;66;1693;-23
2024/03/21 13:59:15;;;;;;;;;;;;;;;;;;2190934;59;3615;-23
2024/03/21 14:01:46;;;;;;;;;;;;;;;;;;2195343;66;1309;-23
2024/03/21 14:04:16;;;;;;;;;;;;;;;;;;2193544;59;2255;-23
2024/03/21 14:06:46;;;;;;;;;;;;;;;;;;2195169;66;1559;-23
2024/03/21 14:09:17;;;;;;;;;;;;;;;;;;2191637;59;2363;-23
2024/03/21 14:11:47;;;;;;;;;;;;;;;;;;2194288;59;1621;-23
2024/03/21 14:14:17;;;;;;;;;;;;;;;;;;2194261;59;1467;-23
2024/03/21 14:16:47;;;;;;;;;;;;;;;;;;2194715;59;1516;-23
2024/03/21 14:19:18;;;;;;;;;;;;;;;;;;2194702;66;1643;-23
2024/03/21 14:21:48;;;;;;;;;;;;;;;;;;2192574;59;1310;-24
2024/03/21 14:24:18;;;;;;;;;;;;;;;;;;2192590;59;1673;-24
2024/03/21 14:26:48;;;;;;;;;;;;;;;;;;2195667;66;1694;-24
2024/03/21 14:29:18;;;;;;;;;;;;;;;;;;2194231;66;1940;-24
2024/03/21 14:31:49;;;;;;;;;;;;;;;;;;2195274;59;2409;-24
2024/03/21 14:34:19;;;;;;;;;;;;;;;;;;2191403;59;1540;-24
2024/03/21 14:36:49;;;;;;;;;;;;;;;;;;2194405;66;1661;-24
2024/03/21 14:39:20;;;;;;;;;;;;;;;;;;2192614;59;1878;-24
2024/03/21 14:41:55;;;;;;;;;;;;;;;;;;2195123;59;1682;-24
2024/03/21 14:44:25;;;;;;;;;;;;;;;;;;2189180;59;1840;-24
2024/03/21 14:46:55;;;;;;;;;;;;;;;;;;2195047;60;1490;-24
2024/03/21 14:49:26;;;;;;;;;;;;;;;;;;2195209;66;1998;-24
2024/03/21 14:51:56;;;;;;;;;;;;;;;;;;2195175;59;1213;-24
2024/03/21 14:54:26;;;;;;;;;;;;;;;;;;2187969;59;2886;-24
2024/03/21 14:56:57;;;;;;;;;;;;;;;;;;2190120;67;1464;-24
2024/03/21 14:59:27;;;;;;;;;;;;;;;;;;2191483;66;2609;-24
2024/03/21 15:01:58;;;;;;;;;;;;;;;;;;2195293;59;1718;-23
2024/03/21 15:04:28;;;;;;;;;;;;;;;;;;2194055;66;1559;-23
2024/03/21 15:06:58;;;;;;;;;;;;;;;;;;2189324;67;1252;-23
2024/03/21 15:09:28;;;;;;;;;;;;;;;;;;2190870;66;1952;-23
2024/03/21 15:11:59;;;;;;;;;;;;;;;;;;2195001;59;1414;-23
2024/03/21 15:14:32;;;;;;;;;;;;;;;;;;2194445;59;1641;-23
2024/03/21 15:17:02;;;;;;;;;;;;;;;;;;2193929;59;2190;-23
2024/03/21 15:19:32;;;;;;;;;;;;;;;;;;2187833;59;1808;-23
2024/03/21 15:22:03;;;;;;;;;;;;;;;;;;2194252;59;2103;-24
2024/03/21 15:24:33;;;;;;;;;;;;;;;;;;2190207;59;2281;-23
2024/03/21 15:27:03;;;;;;;;;;;;;;;;;;2194440;59;2299;-23
2024/03/21 15:29:33;;;;;;;;;;;;;;;;;;2186686;66;2685;-23
2024/03/21 15:32:04;;;;;;;;;;;;;;;;;;2190539;66;2616;-23
2024/03/21 15:34:34;;;;;;;;;;;;;;;;;;2191675;59;1509;-24
2024/03/21 15:37:04;;;;;;;;;;;;;;;;;;2192047;59;2382;-24
2024/03/21 15:39:34;;;;;;;;;;;;;;;;;;2192837;59;2105;-24
2024/03/21 15:42:05;;;;;;;;;;;;;;;;;;2195186;59;1635;-24
2024/03/21 15:44:35;;;;;;;;;;;;;;;;;;2193374;59;2106;-24
2024/03/21 15:47:05;;;;;;;;;;;;;;;;;;2192822;59;2402;-24
2024/03/21 15:49:35;;;;;;;;;;;;;;;;;;2187444;59;2198;-24
2024/03/21 15:52:06;;;;;;;;;;;;;;;;;;2191985;59;2241;-24
2024/03/21 15:54:36;;;;;;;;;;;;;;;;;;2192999;59;2337;-24
2024/03/21 15:57:06;;;;;;;;;;;;;;;;;;2193953;59;2275;-24
2024/03/21 15:59:37;;;;;;;;;;;;;;;;;;2186544;59;2502;-23
2024/03/21 16:02:07;;;;;;;;;;;;;;;;;;2193314;59;2295;-23
2024/03/21 16:04:37;;;;;;;;;;;;;;;;;;2191257;59;2531;-23
2024/03/21 16:07:07;;;;;;;;;;;;;;;;;;2190175;59;2272;-23
2024/03/21 16:09:38;;;;;;;;;;;;;;;;;;2189441;59;2203;-24
2024/03/21 16:12:08;;;;;;;;;;;;;;;;;;2193092;59;2223;-23
2024/03/21 16:14:38;;;;;;;;;;;;;;;;;;2189231;59;2575;-24
2024/03/21 16:17:08;;;;;;;;;;;;;;;;;;2189963;59;2280;-24
2024/03/21 16:19:39;;;;;;;;;;;;;;;;;;2186816;59;2465;-24
2024/03/21 16:22:11;;;;;;;;;;;;;;;;;;2194755;59;2609;-24
2024/03/21 16:24:41;;;;;;;;;;;;;;;;;;2192612;59;2509;-24
2024/03/21 16:27:11;;;;;;;;;;;;;;;;;;2193012;59;2353;-24
2024/03/21 16:29:43;;;;;;;;;;;;;;;;;;2188673;59;2635;-23
2024/03/21 16:32:13;;;;;;;;;;;;;;;;;;2192969;60;2664;-24
2024/03/21 16:34:43;;;;;;;;;;;;;;;;;;2194019;59;2350;-24
2024/03/21 16:37:13;;;;;;;;;;;;;;;;;;2192217;59;2206;-23
2024/03/21 16:39:44;;;;;;;;;;;;;;;;;;2190515;59;1637;-24
2024/03/21 16:42:14;;;;;;;;;;;;;;;;;;2188125;59;1618;-24
2024/03/21 16:44:45;;;;;;;;;;;;;;;;;;2194084;59;1541;-24
2024/03/21 16:47:15;;;;;;;;;;;;;;;;;;2195581;59;2045;-24
2024/03/21 16:49:45;;;;;;;;;;;;;;;;;;2196972;59;2522;-24
2024/03/21 16:52:16;;;;;;;;;;;;;;;;;;2198795;59;2073;-24
2024/03/21 16:54:48;;;;;;;;;;;;;;;;;;2195891;59;2018;-24
2024/03/21 16:57:18;;;;;;;;;;;;;;;;;;2195083;59;1242;-24
2024/03/21 16:59:49;;;;;;;;;;;;;;;;;;2196348;59;1731;-24
2024/03/21 17:02:21;;;;;;;;;;;;;;;;;;2192653;59;1996;-24
2024/03/21 17:04:51;;;;;;;;;;;;;;;;;;2193699;59;2446;-24
2024/03/21 17:07:22;;;;;;;;;;;;;;;;;;2196386;59;1804;-24
2024/03/21 17:09:52;;;;;;;;;;;;;;;;;;2194622;66;1991;-23
2024/03/21 17:12:22;;;;;;;;;;;;;;;;;;2190431;59;2074;-23
2024/03/21 17:14:53;;;;;;;;;;;;;;;;;;2191907;59;2419;-23
2024/03/21 17:17:24;;;;;;;;;;;;;;;;;;2191990;59;2435;-24
2024/03/21 17:19:54;;;;;;;;;;;;;;;;;;2185815;59;2454;-23
2024/03/21 17:22:24;;;;;;;;;;;;;;;;;;2194233;66;1425;-23
2024/03/21 17:24:54;;;;;;;;;;;;;;;;;;2194574;59;1681;-23
2024/03/21 17:27:25;;;;;;;;;;;;;;;;;;2194475;66;1545;-23
2024/03/21 17:29:55;;;;;;;;;;;;;;;;;;2194621;66;2013;-23